Time;durP1;ratioP1;P1;durP2;ratioP2;P2;SDS_P1;SDS_P2;PMS_P1;PMS_P2;Temp;Humidity;BMP_temperature;BMP_pressure;BME280_temperature;BME280_humidity;BME280_pressure;Samples;Min_cycle;Max_cycle;Signal;HPM_P1;HPM_P2
2021/04/10 00:03:37;;;;;;;29.55;18.95;;;;;;;5.38;71.18;99982.78;2851387;83;21635;-65
2021/04/10 00:07:40;;;;;;;30.95;20.05;;;;;;;5.32;71.45;99983.20;2851348;83;21591;-65
2021/04/10 00:11:43;;;;;;;40.28;24.27;;;;;;;5.28;71.48;99982.05;2827174;82;21163;-66
2021/04/10 00:15:47;;;;;;;28.65;18.00;;;;;;;5.20;71.67;99981.70;2811007;84;21132;-65
2021/04/10 00:19:50;;;;;;;27.20;17.40;;;;;;;5.18;71.40;99984.92;2810999;84;21176;-66
2021/04/10 00:23:56;;;;;;;39.90;18.52;;;;;;;5.13;71.36;99981.73;2811140;84;21175;-65
2021/04/10 00:28:00;;;;;;;32.90;20.55;;;;;;;5.07;71.42;99976.38;2810897;84;21160;-65
2021/04/10 00:32:04;;;;;;;37.15;20.60;;;;;;;5.13;71.38;99978.62;2811517;84;21096;-66
2021/04/10 00:36:09;;;;;;;32.17;19.07;;;;;;;5.16;71.02;99976.27;2810889;84;21172;-65
2021/04/10 00:40:16;;;;;;;26.60;20.40;;;;;;;5.22;70.69;99979.81;2811289;83;21160;-65
2021/04/10 00:44:19;;;;;;;31.42;20.27;;;;;;;5.28;70.10;99980.73;2810992;84;21569;-66
2021/04/10 00:48:23;;;;;;;36.53;22.87;;;;;;;5.33;69.87;99975.66;2810812;84;21629;-65
2021/04/10 00:52:27;;;;;;;24.87;18.85;;;;;;;5.41;69.75;99971.57;2811322;84;21147;-65
2021/04/10 00:56:30;;;;;;;32.28;22.73;;;;;;;5.46;69.49;99965.14;2810827;84;21135;-64
2021/04/10 01:00:33;;;;;;;32.50;23.27;;;;;;;5.33;69.75;99971.20;2810843;84;21155;-65
2021/04/10 01:04:38;;;;;;;31.52;21.82;;;;;;;5.26;70.08;99974.71;2810733;84;21140;-66
2021/04/10 01:08:40;;;;;;;25.65;16.62;;;;;;;5.19;70.12;99974.75;2787367;84;21610;-66
2021/04/10 01:13:27;;;;;;;31.62;18.87;;;;;;;5.27;69.91;99970.30;2808324;84;21196;-65
2021/04/10 01:17:37;;;;;;;32.60;21.68;;;;;;;5.28;69.48;99966.22;2803581;84;21164;-65
2021/04/10 01:21:51;;;;;;;32.38;20.12;;;;;;;5.28;69.45;99960.95;2803092;84;21550;-65
2021/04/10 01:26:18;;;;;;;31.80;21.07;;;;;;;5.27;69.44;99955.79;2803838;84;21191;-65
2021/04/10 01:30:23;;;;;;;32.78;24.75;;;;;;;5.15;69.89;99958.75;2805092;84;33776;-65
2021/04/10 01:34:43;;;;;;;32.23;20.50;;;;;;;5.19;69.89;99964.20;2803832;84;21175;-65
2021/04/10 01:38:49;;;;;;;28.45;17.05;;;;;;;5.27;69.76;99968.98;2801986;83;21196;-65
2021/04/10 01:42:55;;;;;;;38.15;20.90;;;;;;;5.21;69.37;99971.98;2804109;84;21182;-65
2021/04/10 01:46:59;;;;;;;34.50;17.62;;;;;;;4.95;70.22;99962.20;2804052;84;21566;-65
2021/04/10 01:51:03;;;;;;;31.82;18.23;;;;;;;4.64;71.41;99956.20;2784204;84;21140;-65
2021/04/10 01:55:09;;;;;;;28.38;18.92;;;;;;;4.37;72.34;99957.44;2804035;84;21606;-65
2021/04/10 01:59:16;;;;;;;24.52;18.23;;;;;;;4.17;72.81;99953.41;2804047;83;21132;-65
2021/04/10 02:03:21;;;;;;;27.40;18.02;;;;;;;4.11;73.12;99956.77;2804046;83;21179;-65
2021/04/10 02:07:27;;;;;;;28.77;17.57;;;;;;;4.08;73.23;99954.31;2804103;84;21128;-65
2021/04/10 02:11:33;;;;;;;24.40;14.58;;;;;;;4.11;73.16;99948.03;2803851;84;21180;-65
2021/04/10 02:15:36;;;;;;;27.22;17.00;;;;;;;4.14;72.97;99956.60;2803825;84;21621;-65
2021/04/10 02:19:39;;;;;;;23.15;16.17;;;;;;;4.17;72.97;99950.28;2803745;84;21163;-65
2021/04/10 02:23:43;;;;;;;24.00;15.75;;;;;;;4.28;72.54;99949.17;2804086;83;21144;-65
2021/04/10 02:27:49;;;;;;;22.37;15.05;;;;;;;4.31;72.42;99945.48;2803917;84;21164;-65
2021/04/10 02:32:16;;;;;;;21.13;16.87;;;;;;;4.33;72.30;99943.64;2804403;84;21207;-65
2021/04/10 02:36:22;;;;;;;25.45;17.15;;;;;;;4.42;71.98;99940.42;2804385;83;21212;-65
2021/04/10 02:40:36;;;;;;;23.90;14.47;;;;;;;4.47;71.68;99930.06;2803940;84;21123;-65
2021/04/10 02:44:50;;;;;;;28.67;17.35;;;;;;;4.45;71.41;99930.64;2803718;84;21159;-64
2021/04/10 02:49:04;;;;;;;19.85;15.10;;;;;;;4.41;71.50;99949.72;2803886;84;21626;-65
2021/04/10 02:53:29;;;;;;;25.92;16.30;;;;;;;4.40;71.48;99956.80;2803899;84;21184;-64
2021/04/10 02:57:34;;;;;;;26.60;15.95;;;;;;;4.41;71.39;99949.27;2632185;90;21591;-65
2021/04/10 03:01:39;;;;;;;23.15;14.55;;;;;;;4.39;71.51;99944.56;2648865;89;21225;-65
2021/04/10 03:05:45;;;;;;;21.02;13.83;;;;;;;4.47;71.40;99932.25;2648958;89;21173;-66
2021/04/10 03:09:50;;;;;;;27.82;14.93;;;;;;;4.50;71.10;99934.69;2648960;89;21662;-65
2021/04/10 03:14:15;;;;;;;25.75;17.27;;;;;;;4.46;70.96;99928.38;2626358;90;21217;-65
2021/04/10 03:18:18;;;;;;;20.62;15.10;;;;;;;4.29;71.46;99933.75;2779117;85;21148;-65
2021/04/10 03:22:22;;;;;;;23.15;13.48;;;;;;;4.17;71.96;99935.80;2728255;87;21208;-65
2021/04/10 03:26:46;;;;;;;20.95;14.65;;;;;;;4.11;72.47;99931.75;2728652;87;21212;-65
2021/04/10 03:30:50;;;;;;;22.15;15.43;;;;;;;4.13;72.57;99931.22;2813337;84;21156;-65
2021/04/10 03:34:54;;;;;;;22.22;14.87;;;;;;;4.20;72.40;99928.20;2813412;83;21148;-66
2021/04/10 03:38:59;;;;;;;18.65;14.18;;;;;;;4.25;72.09;99942.79;2813289;84;22202;-66
2021/04/10 03:43:03;;;;;;;20.55;13.55;;;;;;;4.28;71.96;99933.83;2770676;84;21191;-65
2021/04/10 03:47:06;;;;;;;20.65;14.40;;;;;;;4.27;72.00;99925.56;2766976;84;21134;-65
2021/04/10 03:51:09;;;;;;;25.72;15.25;;;;;;;4.26;72.21;99923.41;2719327;87;21214;-64
2021/04/10 03:55:13;;;;;;;22.45;14.75;;;;;;;4.28;72.24;99925.94;2767177;85;21141;-65
2021/04/10 03:59:16;;;;;;;20.88;15.03;;;;;;;4.34;72.18;99928.21;2719492;87;21672;-65
2021/04/10 04:03:21;;;;;;;24.07;15.55;;;;;;;4.34;72.10;99934.80;2764739;85;21171;-65
2021/04/10 04:07:26;;;;;;;23.40;15.90;;;;;;;4.38;72.06;99940.24;2719703;87;21186;-65
2021/04/10 04:11:31;;;;;;;28.32;15.25;;;;;;;4.40;71.90;99927.82;2766405;85;21202;-64
2021/04/10 04:15:35;;;;;;;30.08;16.02;;;;;;;4.48;71.65;99922.08;2720096;87;21183;-66
2021/04/10 04:19:38;;;;;;;21.12;14.78;;;;;;;4.48;71.44;99914.18;2719325;87;21178;-65
2021/04/10 04:23:43;;;;;;;21.00;14.87;;;;;;;4.39;71.66;99927.45;2692011;87;21206;-64
2021/04/10 04:27:46;;;;;;;20.70;14.40;;;;;;;4.30;72.17;99925.37;2724009;86;21180;-64
2021/04/10 04:31:49;;;;;;;18.82;15.48;;;;;;;4.29;72.49;99928.94;2723675;86;21176;-65
2021/04/10 04:35:52;;;;;;;17.30;13.05;;;;;;;4.35;72.61;99933.85;2730968;87;21587;-65
2021/04/10 04:39:58;;;;;;;21.90;15.25;;;;;;;4.58;73.19;99928.45;2723363;86;21304;-65
2021/04/10 04:44:02;;;;;;;19.70;14.93;;;;;;;5.05;72.40;99936.09;2731708;87;21162;-65
2021/04/10 04:48:07;;;;;;;18.45;14.93;;;;;;;5.56;71.06;99935.41;2728363;86;21198;-65
2021/04/10 04:52:13;;;;;;;24.67;15.48;;;;;;;6.05;71.06;99944.11;2756979;85;21181;-65
2021/04/10 04:56:16;;;;;;;19.85;12.55;;;;;;;6.49;69.28;99945.45;2767628;86;21146;-65
2021/04/10 05:00:21;;;;;;;19.40;13.38;;;;;;;6.81;67.85;99953.38;2766732;86;21194;-65
2021/04/10 05:04:25;;;;;;;16.90;13.75;;;;;;;7.08;66.53;99949.71;2767424;86;21125;-65
2021/04/10 05:08:28;;;;;;;21.33;14.47;;;;;;;7.14;65.78;99938.67;2739087;85;21181;-65
2021/04/10 05:12:32;;;;;;;22.42;14.50;;;;;;;7.17;66.14;99942.41;2723827;87;21181;-65
2021/04/10 05:16:35;;;;;;;19.10;13.22;;;;;;;7.18;66.21;99939.30;2731870;87;21189;-65
2021/04/10 05:20:38;;;;;;;15.35;12.10;;;;;;;7.17;67.14;99954.78;2723898;87;21172;-65
2021/04/10 05:24:42;;;;;;;20.65;11.95;;;;;;;7.22;67.58;99937.62;2731589;87;21590;-66
2021/04/10 05:28:47;;;;;;;17.80;8.75;;;;;;;7.29;68.24;99928.76;2717278;87;21177;-65
2021/04/10 05:32:50;;;;;;;15.28;11.38;;;;;;;7.48;67.30;99929.57;2676112;89;21162;-65
2021/04/10 05:36:55;;;;;;;16.25;11.78;;;;;;;7.83;67.78;99926.54;2701645;86;21604;-66
2021/04/10 05:40:58;;;;;;;15.38;10.32;;;;;;;8.06;67.45;99927.90;2753736;85;21182;-66
2021/04/10 05:45:03;;;;;;;21.07;12.10;;;;;;;8.26;67.20;99931.17;2753709;86;21173;-65
2021/04/10 05:49:07;;;;;;;15.97;11.13;;;;;;;8.43;65.94;99923.70;2748709;85;21182;-65
2021/04/10 05:53:10;;;;;;;21.33;12.60;;;;;;;8.53;65.63;99906.62;2750874;86;21738;-66
2021/04/10 05:57:15;;;;;;;20.65;11.48;;;;;;;8.60;65.50;99911.79;2731190;86;21177;-66
2021/04/10 06:01:18;;;;;;;20.02;12.58;;;;;;;8.94;66.11;99926.33;2717268;87;21211;-66
2021/04/10 06:05:24;;;;;;;18.90;12.78;;;;;;;9.24;65.14;99931.44;2716589;87;21187;-65
2021/04/10 06:09:27;;;;;;;15.98;11.80;;;;;;;9.39;64.39;99951.03;2717539;86;21207;-66
2021/04/10 06:13:30;;;;;;;20.48;14.30;;;;;;;9.39;64.08;99945.72;2717720;87;21605;-65
2021/04/10 06:17:33;;;;;;;19.20;14.15;;;;;;;9.32;64.83;99939.25;2719613;87;21150;-65
2021/04/10 06:21:37;;;;;;;19.75;12.50;;;;;;;9.25;65.64;99940.23;2718903;87;22431;-66
2021/04/10 06:25:40;;;;;;;18.65;12.93;;;;;;;9.19;65.84;99945.55;2717354;87;21166;-65
2021/04/10 06:29:45;;;;;;;16.65;13.03;;;;;;;9.12;66.46;99953.16;2722699;86;21620;-66
2021/04/10 06:38:14;;;;;;;16.50;13.70;;;;;;;9.11;66.71;99945.34;2713612;87;21611;-66
2021/04/10 06:42:20;;;;;;;30.48;20.97;;;;;;;9.16;66.85;99948.45;2816889;84;21165;-65
2021/04/10 06:46:23;;;;;;;;;;;;;;;9.26;67.23;99941.45;2818633;84;21155;-66
2021/04/10 06:50:27;;;;;;;23.27;15.43;;;;;;;9.49;67.29;99933.39;2796854;84;20205;-66
2021/04/10 06:54:37;;;;;;;21.90;14.13;;;;;;;9.75;66.54;99927.70;2781735;84;21166;-66
2021/04/10 06:59:15;;;;;;;24.90;13.58;;;;;;;9.99;66.28;99927.91;2807107;84;21201;-66
2021/04/10 07:03:19;;;;;;;19.92;14.50;;;;;;;10.23;65.89;99933.45;2808190;84;21138;-66
2021/04/10 07:07:24;;;;;;;35.70;27.55;;;;;;;10.46;65.94;99935.45;2781203;85;21145;-66
2021/04/10 07:11:27;;;;;;;52.60;36.90;;;;;;;10.73;66.83;99932.70;2786471;84;21157;-65
2021/04/10 07:15:30;;;;;;;35.78;25.68;;;;;;;11.02;66.67;99928.42;2792464;84;21086;-66
2021/04/10 07:19:43;;;;;;;23.07;16.63;;;;;;;11.36;66.94;99933.34;2798589;84;22162;-66
2021/04/10 07:23:54;;;;;;;31.75;23.00;;;;;;;12.06;67.47;99931.84;2798052;84;21181;-66
2021/04/10 07:28:31;;;;;;;28.87;19.45;;;;;;;12.77;63.64;99926.06;2800880;84;21177;-66
2021/04/10 07:32:37;;;;;;;30.73;20.50;;;;;;;13.06;61.72;99930.41;2781488;85;21161;-66
2021/04/10 07:36:41;;;;;;;26.33;19.05;;;;;;;13.18;60.58;99926.53;2843866;82;21175;-66
2021/04/10 07:40:44;;;;;;;20.50;13.20;;;;;;;13.37;61.71;99935.39;2833310;84;21189;-66
2021/04/10 07:44:48;;;;;;;26.07;16.65;;;;;;;13.61;61.22;99936.62;2914738;81;21705;-66
2021/04/10 07:49:12;;;;;;;33.05;21.27;;;;;;;13.89;60.77;99929.33;2914794;81;21146;-66
2021/04/10 07:53:28;;;;;;;20.32;13.10;;;;;;;14.14;57.13;99926.30;2914695;81;21551;-63
2021/04/10 07:57:33;;;;;;;20.68;12.98;;;;;;;14.44;55.44;99921.94;2869703;81;21626;-64
2021/04/10 08:01:38;;;;;;;24.67;17.05;;;;;;;14.69;54.71;99920.72;2842257;82;21580;-63
2021/04/10 08:05:44;;;;;;;17.37;12.78;;;;;;;14.79;54.66;99933.49;2830976;83;21149;-63
2021/04/10 08:09:58;;;;;;;30.27;19.57;;;;;;;14.89;53.61;99935.21;2862463;83;21484;-64
2021/04/10 08:14:10;;;;;;;27.27;18.17;;;;;;;14.93;55.45;99940.05;2844499;81;21127;-62
2021/04/10 08:18:26;;;;;;;18.25;14.70;;;;;;;14.88;56.09;99942.91;2781004;84;21133;-61
2021/04/10 08:22:29;;;;;;;43.10;18.32;;;;;;;14.76;57.66;99945.87;2826142;81;21154;-62
2021/04/10 08:26:32;;;;;;;10.70;8.95;;;;;;;14.69;56.12;99953.67;2790937;84;21151;-63
2021/04/10 08:30:35;;;;;;;8.68;7.05;;;;;;;14.62;53.36;99949.97;2813965;83;21157;-62
2021/04/10 08:34:38;;;;;;;15.38;8.35;;;;;;;14.47;52.31;99947.55;2833477;84;21166;-62
2021/04/10 08:38:43;;;;;;;11.40;6.90;;;;;;;14.32;52.41;99958.02;2778206;84;21190;-63
2021/04/10 08:42:49;;;;;;;11.93;7.93;;;;;;;14.23;52.62;99955.78;2784416;84;21151;-61
2021/04/10 08:46:53;;;;;;;14.00;9.18;;;;;;;14.10;52.43;99962.37;2811704;82;21645;-62
2021/04/10 08:51:01;;;;;;;7.95;6.87;;;;;;;14.02;52.34;99966.34;2787800;83;21190;-63
2021/04/10 08:55:25;;;;;;;11.60;8.43;;;;;;;13.97;52.34;99965.98;2808859;84;21177;-62
2021/04/10 08:59:34;;;;;;;9.70;6.30;;;;;;;13.92;52.59;99968.27;2833131;83;21221;-62
2021/04/10 09:03:52;;;;;;;10.93;6.97;;;;;;;13.82;52.71;99971.03;2832475;84;21571;-63
2021/04/10 09:08:00;;;;;;;15.05;7.47;;;;;;;13.77;52.98;99971.52;2869586;81;21663;-63
2021/04/10 09:12:22;;;;;;;10.72;6.03;;;;;;;13.76;52.67;99963.64;2854371;82;21763;-62
2021/04/10 09:16:46;;;;;;;12.65;7.25;;;;;;;13.75;51.80;99965.45;2912182;81;21163;-63
2021/04/10 09:20:50;;;;;;;8.60;6.70;;;;;;;13.77;52.15;99963.98;2884312;82;21159;-62
2021/04/10 09:24:57;;;;;;;7.72;5.78;;;;;;;13.82;51.34;99964.34;2918858;81;21598;-63
2021/04/10 09:29:15;;;;;;;12.88;7.97;;;;;;;13.85;51.40;99960.88;2884403;82;21148;-63
2021/04/10 09:33:33;;;;;;;10.85;7.70;;;;;;;13.95;52.08;99975.97;2871639;81;21186;-63
2021/04/10 09:37:41;;;;;;;9.60;6.40;;;;;;;14.12;53.42;99994.33;2906297;81;21153;-63
2021/04/10 09:41:50;;;;;;;11.60;6.72;;;;;;;14.19;54.96;99999.91;2935360;80;21101;-63
2021/04/10 09:45:53;;;;;;;35.15;22.25;;;;;;;14.21;55.96;100006.75;2957854;80;21149;-63
2021/04/10 09:49:56;;;;;;;35.52;21.70;;;;;;;13.99;57.75;100026.83;2958050;80;21590;-64
2021/04/10 09:54:00;;;;;;;38.20;25.72;;;;;;;13.48;58.65;100035.38;2957820;80;21555;-63
2021/04/10 09:58:06;;;;;;;36.33;25.20;;;;;;;13.05;60.72;100035.52;2901566;80;21090;-63
2021/04/10 10:02:09;;;;;;;;;;;;;;;12.94;61.70;100045.39;2904722;80;21166;-63
2021/04/10 10:06:28;;;;;;;30.30;21.30;;;;;;;12.97;61.64;100050.47;2892215;81;20204;-62
2021/04/10 10:10:38;;;;;;;32.42;22.98;;;;;;;13.01;61.40;100050.99;2913217;80;21166;-62
2021/04/10 10:14:48;;;;;;;28.65;20.50;;;;;;;12.96;60.84;100059.95;2913104;81;21140;-62
2021/04/10 10:18:51;;;;;;;30.12;21.95;;;;;;;12.96;61.24;100050.09;2913510;81;21154;-63
2021/04/10 10:22:54;;;;;;;31.73;20.92;;;;;;;13.13;61.46;100056.98;2913607;81;22210;-62
2021/04/10 10:26:57;;;;;;;28.92;22.17;;;;;;;13.26;60.56;100052.14;2913520;81;21182;-63
2021/04/10 10:31:10;;;;;;;25.90;19.85;;;;;;;13.35;61.27;100064.23;2913384;81;21119;-62
2021/04/10 10:35:25;;;;;;;25.17;18.98;;;;;;;13.49;60.94;100069.62;3102225;76;24044;-60
2021/04/10 10:39:38;;;;;;;29.37;21.90;;;;;;;13.50;60.97;100072.13;3017666;77;21148;-61
2021/04/10 10:43:42;;;;;;;23.05;18.07;;;;;;;13.56;60.70;100077.37;2941065;78;21156;-63
2021/04/10 10:47:46;;;;;;;32.13;19.17;;;;;;;13.68;60.43;100081.52;2945705;80;21614;-62
2021/04/10 10:51:49;;;;;;;31.02;20.50;;;;;;;13.77;59.92;100086.95;2962757;80;21101;-62
2021/04/10 10:56:34;;;;;;;22.27;16.57;;;;;;;13.91;59.68;100088.24;2956806;78;21141;-62
2021/04/10 11:00:38;;;;;;;29.95;21.60;;;;;;;14.08;57.82;100084.73;2944730;78;21159;-62
2021/04/10 11:04:42;;;;;;;23.25;17.27;;;;;;;14.25;57.53;100083.05;2936452;78;21156;-63
2021/04/10 11:08:47;;;;;;;34.98;20.08;;;;;;;14.31;57.08;100092.78;2953881;78;21152;-62
2021/04/10 11:12:50;;;;;;;24.02;16.85;;;;;;;14.21;56.37;100098.22;2946339;78;21157;-62
2021/04/10 11:16:56;;;;;;;21.35;13.48;;;;;;;14.12;56.38;100103.48;2948801;78;21688;-62
2021/04/10 11:21:26;;;;;;;26.77;16.05;;;;;;;13.96;55.84;100107.37;2936379;78;21645;-63
2021/04/10 11:25:29;;;;;;;18.92;13.20;;;;;;;13.80;57.01;100117.38;2926266;80;21089;-61
2021/04/10 11:29:35;;;;;;;17.00;12.15;;;;;;;13.75;55.76;100129.85;2952114;78;21546;-64
2021/04/10 11:33:38;;;;;;;22.70;12.68;;;;;;;13.59;55.62;100123.02;2953065;78;21468;-61
2021/04/10 11:37:57;;;;;;;27.32;20.43;;;;;;;13.48;55.00;100118.72;2961075;79;21172;-62
2021/04/10 11:42:00;;;;;;;26.17;19.55;;;;;;;13.45;57.92;100118.51;2932063;78;22187;-66
2021/04/10 11:46:03;;;;;;;34.25;21.30;;;;;;;13.49;59.47;100125.23;2945482;80;21140;-66
2021/04/10 11:50:21;;;;;;;30.45;22.75;;;;;;;13.50;59.40;100136.27;2971289;80;21117;-66
2021/04/10 11:54:33;;;;;;;32.95;21.12;;;;;;;13.41;60.36;100139.30;2971050;80;21101;-66
2021/04/10 11:58:38;;;;;;;24.43;19.00;;;;;;;13.40;61.41;100144.80;2971222;80;21430;-66
2021/04/10 12:02:46;;;;;;;28.52;18.95;;;;;;;13.40;61.06;100143.47;2971247;80;21125;-65
2021/04/10 12:06:49;;;;;;;27.20;20.48;;;;;;;13.36;61.51;100148.73;2971075;79;21152;-66
2021/04/10 12:10:59;;;;;;;29.52;18.50;;;;;;;13.39;62.13;100147.12;2971125;80;21605;-66
2021/04/10 12:15:05;;;;;;;27.67;20.95;;;;;;;13.41;63.05;100154.50;2971054;80;21112;-66
2021/04/10 12:19:11;;;;;;;35.52;19.98;;;;;;;13.39;64.02;100152.47;2971439;80;22146;-66
2021/04/10 12:23:15;;;;;;;30.37;20.75;;;;;;;13.41;63.83;100157.17;2971119;80;21579;-66
2021/04/10 12:27:18;;;;;;;29.07;21.62;;;;;;;13.47;63.90;100161.95;2956703;79;21365;-66
2021/04/10 12:31:22;;;;;;;27.25;19.20;;;;;;;13.49;63.03;100165.31;2953202;80;21148;-66
2021/04/10 12:35:25;;;;;;;25.75;16.80;;;;;;;13.54;62.40;100175.05;2953228;80;21156;-66
2021/04/10 12:39:29;;;;;;;22.35;16.70;;;;;;;13.54;62.07;100170.22;2919150;81;21120;-66
2021/04/10 12:43:32;;;;;;;29.30;18.37;;;;;;;13.50;62.11;100167.50;2919075;81;21737;-66
2021/04/10 12:47:37;;;;;;;26.15;17.35;;;;;;;13.44;61.70;100170.27;2919295;81;21144;-66
2021/04/10 12:51:41;;;;;;;23.67;16.75;;;;;;;13.35;62.81;100173.29;2919205;81;21183;-66
2021/04/10 12:55:44;;;;;;;25.20;18.12;;;;;;;13.20;64.08;100178.75;2918571;81;21578;-66
2021/04/10 12:59:47;;;;;;;24.82;15.93;;;;;;;13.11;63.94;100181.80;2919120;81;21587;-66
2021/04/10 13:03:50;;;;;;;25.88;18.00;;;;;;;13.03;63.75;100169.17;2925888;80;21145;-66
2021/04/10 13:07:54;;;;;;;26.50;19.32;;;;;;;13.07;64.01;100175.92;2936096;80;21804;-69
2021/04/10 13:11:58;;;;;;;30.80;20.27;;;;;;;13.13;63.99;100176.67;2965604;80;21140;-63
2021/04/10 13:16:02;;;;;;;28.00;20.45;;;;;;;13.24;63.75;100182.33;2970743;80;21156;-67
2021/04/10 13:20:10;;;;;;;25.40;16.65;;;;;;;13.37;63.19;100187.34;2934897;80;21559;-68
2021/04/10 13:24:13;;;;;;;25.08;18.02;;;;;;;13.47;62.40;100167.29;2919174;81;21160;-68
2021/04/10 13:28:18;;;;;;;32.53;21.27;;;;;;;13.55;60.94;100179.41;2940290;79;21177;-68
2021/04/10 13:32:21;;;;;;;29.48;19.20;;;;;;;13.66;60.74;100181.06;2832952;81;21652;-69
2021/04/10 13:36:24;;;;;;;28.77;20.60;;;;;;;13.75;59.86;100184.66;2862896;82;21626;-67
2021/04/10 13:40:27;;;;;;;42.25;26.75;;;;;;;13.83;59.24;100183.91;2891769;82;21129;-68
2021/04/10 13:44:31;;;;;;;25.85;20.37;;;;;;;13.81;57.78;100186.75;2907707;81;21113;-67
2021/04/10 13:48:35;;;;;;;53.13;35.05;;;;;;;13.72;58.87;100188.96;2857412;81;21626;-68
2021/04/10 13:52:40;;;;;;;35.08;19.57;;;;;;;13.69;58.99;100197.28;2866971;81;21124;-68
2021/04/10 13:56:43;;;;;;;34.95;18.85;;;;;;;13.66;59.49;100197.59;2847130;81;21187;-67
2021/04/10 14:00:47;;;;;;;23.15;16.50;;;;;;;13.70;59.75;100197.15;2864925;82;21151;-67
2021/04/10 14:05:04;;;;;;;27.65;18.02;;;;;;;13.72;59.55;100198.32;2906842;81;21143;-66
2021/04/10 14:09:07;;;;;;;28.60;20.75;;;;;;;13.73;59.15;100191.98;2862966;82;21160;-66
2021/04/10 14:13:11;;;;;;;37.05;19.60;;;;;;;13.74;59.04;100193.66;2831837;82;21198;-66
2021/04/10 14:17:14;;;;;;;27.60;19.80;;;;;;;13.86;59.10;100192.99;2864664;83;21124;-66
2021/04/10 14:21:18;;;;;;;25.50;19.85;;;;;;;14.00;59.30;100198.32;2866242;83;21127;-67
2021/04/10 14:25:24;;;;;;;30.72;20.52;;;;;;;14.16;59.40;100199.49;2866261;83;21116;-65
2021/04/10 14:29:27;;;;;;;24.20;18.27;;;;;;;14.27;59.06;100207.28;2922487;80;21123;-66
2021/04/10 14:33:31;;;;;;;20.68;16.30;;;;;;;14.36;58.67;100203.71;2900792;80;21583;-66
2021/04/10 14:37:34;;;;;;;22.95;18.40;;;;;;;14.42;57.84;100199.08;2905849;81;21172;-67
2021/04/10 14:41:37;;;;;;;54.85;37.93;;;;;;;14.41;58.14;100200.07;2905423;81;21147;-68
2021/04/10 14:45:44;;;;;;;24.80;17.70;;;;;;;14.38;58.74;100194.17;2876005;81;21598;-67
2021/04/10 14:49:46;;;;;;;21.62;18.17;;;;;;;14.37;58.16;100192.01;2909022;81;21148;-66
2021/04/10 14:53:50;;;;;;;29.75;17.02;;;;;;;14.36;57.49;100197.02;2865654;83;21165;-68
2021/04/10 14:57:55;;;;;;;25.88;17.10;;;;;;;14.43;58.38;100192.73;2876408;80;21163;-67
2021/04/10 15:01:57;;;;;;;21.05;16.25;;;;;;;14.52;58.79;100193.64;2885061;80;21135;-67
2021/04/10 15:06:08;;;;;;;22.10;15.15;;;;;;;14.64;58.25;100194.72;2825688;82;21187;-66
2021/04/10 15:10:14;;;;;;;21.75;16.52;;;;;;;14.72;58.27;100193.50;2851470;81;21190;-67
2021/04/10 15:14:20;;;;;;;25.20;17.98;;;;;;;14.84;58.00;100195.42;2857650;82;21151;-67
2021/04/10 15:18:24;;;;;;;21.10;17.42;;;;;;;14.98;58.04;100193.53;2860799;82;21125;-66
2021/04/10 15:22:29;;;;;;;33.30;23.30;;;;;;;15.11;58.09;100188.23;2844503;82;21655;-65
2021/04/10 15:26:37;;;;;;;33.63;26.17;;;;;;;15.23;59.43;100182.95;2851019;81;21163;-67
2021/04/10 15:30:40;;;;;;;39.40;26.73;;;;;;;15.08;58.97;100183.19;2861646;81;21621;-65
2021/04/10 15:34:49;;;;;;;39.67;28.27;;;;;;;14.90;59.46;100189.95;2857500;81;21586;-65
2021/04/10 15:38:52;;;;;;;42.05;30.55;;;;;;;14.79;60.34;100190.53;2838621;81;21165;-66
2021/04/10 15:42:58;;;;;;;71.40;47.10;;;;;;;14.76;60.23;100188.17;2892245;81;21117;-66
2021/04/10 15:47:01;;;;;;;58.85;39.92;;;;;;;14.83;60.04;100184.38;2871306;81;21137;-67
2021/04/10 15:51:05;;;;;;;100.45;54.15;;;;;;;14.91;60.48;100188.44;2852312;81;21628;-67
2021/04/10 15:55:09;;;;;;;49.40;33.80;;;;;;;15.02;59.50;100181.16;2846849;81;21609;-67
2021/04/10 15:59:12;;;;;;;73.62;42.17;;;;;;;15.02;61.24;100184.66;2845052;81;21618;-66
2021/04/10 16:03:16;;;;;;;169.00;97.25;;;;;;;15.00;60.62;100178.63;2897896;82;21125;-65
2021/04/10 16:07:19;;;;;;;38.85;27.00;;;;;;;14.98;60.51;100180.14;2865770;81;21157;-66
2021/04/10 16:11:22;;;;;;;34.08;24.47;;;;;;;14.98;60.85;100179.28;2842618;81;21650;-67
2021/04/10 16:15:27;;;;;;;53.02;31.82;;;;;;;15.02;61.73;100180.64;2894075;80;21124;-68
2021/04/10 16:19:30;;;;;;;212.65;111.97;;;;;;;14.96;63.06;100181.28;2912177;81;21163;-66
2021/04/10 16:23:33;;;;;;;111.12;55.20;;;;;;;14.87;62.80;100184.40;2912188;81;21629;-67
2021/04/10 16:27:36;;;;;;;38.85;24.72;;;;;;;14.79;62.86;100183.02;2912849;81;21605;-66
2021/04/10 16:31:39;;;;;;;24.60;18.73;;;;;;;14.69;63.17;100182.56;2913120;81;21174;-66
2021/04/10 16:35:45;;;;;;;30.77;17.82;;;;;;;14.57;63.51;100180.63;2912559;81;21146;-68
2021/04/10 16:39:49;;;;;;;22.52;16.57;;;;;;;14.43;62.41;100188.71;2911403;80;21187;-66
2021/04/10 16:43:52;;;;;;;35.28;26.12;;;;;;;14.34;62.56;100190.95;2912222;81;21146;-67
2021/04/10 16:47:57;;;;;;;27.27;18.40;;;;;;;14.22;61.38;100187.66;2897367;81;21168;-67
2021/04/10 16:52:00;;;;;;;30.27;21.40;;;;;;;14.11;61.61;100191.91;2867829;83;21129;-68
2021/04/10 16:56:04;;;;;;;32.38;21.75;;;;;;;14.01;61.31;100195.99;2868397;83;21875;-67
2021/04/10 17:00:12;;;;;;;33.73;22.60;;;;;;;13.89;60.89;100194.50;2867836;82;21555;-66
2021/04/10 17:04:16;;;;;;;45.43;28.27;;;;;;;13.75;61.18;100200.69;2872292;80;21162;-68
2021/04/10 17:08:22;;;;;;;70.55;40.38;;;;;;;13.65;61.79;100201.25;2899165;81;21154;-68
2021/04/10 17:12:25;;;;;;;64.30;42.98;;;;;;;13.56;61.92;100206.50;2901456;80;21139;-68
2021/04/10 17:16:31;;;;;;;107.87;69.00;;;;;;;13.45;62.44;100204.01;2906469;81;21161;-67
2021/04/10 17:20:36;;;;;;;70.95;47.15;;;;;;;13.33;62.72;100207.80;2908322;81;21248;-63
2021/04/10 17:24:39;;;;;;;39.30;28.60;;;;;;;13.23;63.35;100206.02;2901070;81;21615;-67
2021/04/10 17:28:42;;;;;;;30.30;24.10;;;;;;;13.10;63.49;100213.02;2915045;80;21438;-68
2021/04/10 17:32:45;;;;;;;36.60;25.65;;;;;;;13.00;63.47;100214.38;2917087;81;21160;-68
2021/04/10 17:36:50;;;;;;;56.65;33.45;;;;;;;12.89;63.70;100214.52;2861675;83;21120;-66
2021/04/10 17:40:54;;;;;;;45.05;30.70;;;;;;;12.82;63.85;100210.75;2844255;83;21615;-67
2021/04/10 17:44:57;;;;;;;45.10;32.42;;;;;;;12.75;63.83;100216.28;2866760;82;21171;-70
2021/04/10 17:53:31;;;;;;;;;;;;;;;12.60;64.55;100228.74;2770604;86;21195;-71
2021/04/10 17:57:35;;;;;;;32.30;24.45;;;;;;;12.41;65.73;100229.56;2751210;86;20488;-70
2021/04/10 18:01:43;;;;;;;47.48;28.92;;;;;;;12.25;66.31;100227.45;2768251;86;21192;-70
2021/04/10 18:05:47;;;;;;;37.53;25.15;;;;;;;12.19;66.51;100225.34;2768247;86;21158;-67
2021/04/10 18:09:50;;;;;;;36.60;28.45;;;;;;;12.08;66.79;100235.13;2768415;85;21125;-71
2021/04/10 18:13:54;;;;;;;36.98;29.10;;;;;;;11.97;66.86;100236.53;2768544;86;21121;-71
2021/04/10 18:17:58;;;;;;;41.95;28.98;;;;;;;11.81;67.08;100240.58;2735064;86;21200;-71
2021/04/10 18:22:01;;;;;;;41.08;27.45;;;;;;;11.65;67.44;100253.55;2768103;86;21176;-71
2021/04/10 18:26:09;;;;;;;41.13;26.73;;;;;;;11.52;67.89;100257.77;2768548;86;21566;-71
2021/04/10 18:30:14;;;;;;;41.50;27.60;;;;;;;11.43;67.92;100248.75;2768358;86;21139;-71
2021/04/10 18:34:17;;;;;;;70.97;46.00;;;;;;;11.39;67.98;100260.63;2768238;84;21227;-71
2021/04/10 18:38:21;;;;;;;73.85;47.03;;;;;;;11.34;67.92;100267.70;2767282;86;21156;-71
2021/04/10 18:42:24;;;;;;;83.00;49.15;;;;;;;11.27;68.22;100267.37;2764050;84;21168;-70
2021/04/10 18:46:28;;;;;;;112.95;74.70;;;;;;;11.31;68.49;100267.97;2733895;87;21190;-71
2021/04/10 18:50:31;;;;;;;106.27;71.65;;;;;;;11.10;69.43;100282.13;2733185;85;21168;-70
2021/04/10 18:54:34;;;;;;;100.65;70.80;;;;;;;10.79;70.53;100279.83;2732140;86;21624;-70
2021/04/10 18:58:39;;;;;;;105.80;73.55;;;;;;;10.54;71.63;100279.20;2732577;87;21178;-70
2021/04/10 19:02:42;;;;;;;87.22;61.18;;;;;;;10.39;72.35;100283.44;2732480;87;21279;-70